Le Roy, Michigan
Current Conditions -  °F | °C
As of 3:35 AM on Monday 22 Dec 2014 (Local Time) from KCAD Reporting Station
Haze Haze  
Wind Chill: -7°   Ceiling: 3500
Heat Index: -2°   Visibility: 5mi
Dew Point: -4°   Wind: 9mph
Humidity: 88%   Direction: 160°SSE
Pressure: 30.03"   Gusts: NA
Location:  44.0236°N, 85.4348°W
Report Text: KCAD 220835Z AUTO 16008KT 5SM BR OVC035 M02/M03 A3003 RMK AO2 T10211038
Loading
Personal Weather Stations






























Interactive Weather Map New forecast layout! Learn more

10-Day Weather Forecast

Advertisements
Track Severe Weather on mobile